Time;durP1;ratioP1;P1;durP2;ratioP2;P2;SDS_P1;SDS_P2;PMS_P1;PMS_P2;Temp;Humidity;BMP_temperature;BMP_pressure;BME280_temperature;BME280_humidity;BME280_pressure;Samples;Min_cycle;Max_cycle;Signal;HPM_P1;HPM_P2
2021/09/20 00:00:53;;;;;;;;;;;21.70;62.60;;;;;;507335;235;1150;-47
2021/09/20 00:02:54;;;;;;;;;;;21.70;62.50;;;;;;499176;237;1167;-48
2021/09/20 00:04:55;;;;;;;;;;;21.70;62.50;;;;;;507521;235;1174;-47
2021/09/20 00:06:56;;;;;;;;;;;21.70;62.60;;;;;;499330;237;2105;-47
2021/09/20 00:08:58;;;;;;;;;;;21.80;62.60;;;;;;507459;235;1205;-47
2021/09/20 00:10:59;;;;;;;;;;;21.80;62.50;;;;;;499132;237;1168;-47
2021/09/20 00:13:00;;;;;;;;;;;21.80;62.60;;;;;;506997;235;1169;-47
2021/09/20 00:15:02;;;;;;;;;;;21.80;62.50;;;;;;499518;237;1063;-47
2021/09/20 00:17:03;;;;;;;;;;;21.80;62.50;;;;;;507306;235;1307;-47
2021/09/20 00:19:04;;;;;;;;;;;21.80;62.70;;;;;;499657;237;1040;-47
2021/09/20 00:21:06;;;;;;;;;;;21.80;62.60;;;;;;507404;235;1179;-48
2021/09/20 00:23:07;;;;;;;;;;;21.70;62.50;;;;;;499412;237;1296;-47
2021/09/20 00:25:08;;;;;;;;;;;21.80;62.50;;;;;;507318;235;1030;-47
2021/09/20 00:27:10;;;;;;;;;;;21.80;62.40;;;;;;499547;237;2165;-47
2021/09/20 00:29:11;;;;;;;;;;;21.80;62.40;;;;;;507006;235;1134;-47
2021/09/20 00:31:12;;;;;;;;;;;21.80;62.60;;;;;;499588;237;1181;-47
2021/09/20 00:33:14;;;;;;;;;;;21.80;62.40;;;;;;507207;235;1177;-47
2021/09/20 00:35:15;;;;;;;;;;;21.80;62.30;;;;;;499591;237;1049;-47
2021/09/20 00:37:17;;;;;;;;;;;21.80;62.30;;;;;;507154;235;1220;-47
2021/09/20 00:39:17;;;;;;;;;;;21.70;62.40;;;;;;499153;239;1581;-47
2021/09/20 00:41:19;;;;;;;;;;;21.70;62.50;;;;;;507035;235;1178;-47
2021/09/20 00:43:20;;;;;;;;;;;21.70;62.50;;;;;;499635;237;1273;-47
2021/09/20 00:45:21;;;;;;;;;;;21.70;62.60;;;;;;507382;235;1053;-47
2021/09/20 00:47:23;;;;;;;;;;;21.70;62.60;;;;;;499215;237;2121;-47
2021/09/20 00:49:24;;;;;;;;;;;21.70;62.50;;;;;;507266;235;1188;-47
2021/09/20 00:51:25;;;;;;;;;;;21.70;62.50;;;;;;499423;237;1200;-47
2021/09/20 00:53:27;;;;;;;;;;;21.70;62.40;;;;;;507044;235;1573;-47
2021/09/20 00:55:28;;;;;;;;;;;21.70;62.50;;;;;;499093;237;1074;-47
2021/09/20 00:57:29;;;;;;;;;;;21.70;62.60;;;;;;507417;234;1465;-47
2021/09/20 00:59:31;;;;;;;;;;;21.70;62.60;;;;;;499658;237;1184;-47
2021/09/20 01:01:33;;;;;;;;;;;21.70;62.50;;;;;;507505;235;1110;-47
2021/09/20 01:03:34;;;;;;;;;;;21.70;62.40;;;;;;499686;237;1098;-47
2021/09/20 01:05:35;;;;;;;;;;;21.70;62.50;;;;;;507461;235;2160;-47
2021/09/20 01:07:37;;;;;;;;;;;21.80;62.50;;;;;;499147;237;1234;-47
2021/09/20 01:09:40;;;;;;;;;;;21.70;62.40;;;;;;507270;235;1052;-47
2021/09/20 01:11:40;;;;;;;;;;;21.80;62.40;;;;;;499464;239;2105;-47
2021/09/20 01:13:41;;;;;;;;;;;21.80;62.40;;;;;;507524;235;1015;-47
2021/09/20 01:15:42;;;;;;;;;;;21.80;62.40;;;;;;499619;237;1030;-48
2021/09/20 01:17:44;;;;;;;;;;;21.80;62.40;;;;;;507477;235;1303;-47
2021/09/20 01:19:45;;;;;;;;;;;21.80;62.40;;;;;;499678;237;1038;-47
2021/09/20 01:21:46;;;;;;;;;;;21.70;62.30;;;;;;506938;235;1288;-47
2021/09/20 01:23:48;;;;;;;;;;;21.80;62.30;;;;;;499384;237;1265;-47
2021/09/20 01:25:49;;;;;;;;;;;21.80;62.20;;;;;;507243;235;2179;-47
2021/09/20 01:27:50;;;;;;;;;;;21.80;62.30;;;;;;499626;237;1239;-47
2021/09/20 01:29:51;;;;;;;;;;;21.80;62.30;;;;;;506977;235;1059;-47
2021/09/20 01:31:53;;;;;;;;;;;21.70;62.30;;;;;;499165;237;1401;-47
2021/09/20 01:33:54;;;;;;;;;;;21.70;62.40;;;;;;507407;235;1169;-47
2021/09/20 01:35:56;;;;;;;;;;;21.70;62.50;;;;;;499592;237;1195;-47
2021/09/20 01:37:57;;;;;;;;;;;21.70;62.40;;;;;;507200;235;1156;-47
2021/09/20 01:39:58;;;;;;;;;;;21.60;62.40;;;;;;499176;237;1051;-47
2021/09/20 01:41:59;;;;;;;;;;;21.70;62.40;;;;;;507083;235;1313;-47
2021/09/20 01:44:01;;;;;;;;;;;21.70;62.50;;;;;;499698;237;1088;-47
2021/09/20 01:46:02;;;;;;;;;;;21.70;62.50;;;;;;507491;235;2104;-47
2021/09/20 01:48:03;;;;;;;;;;;21.70;62.50;;;;;;499186;237;1362;-47
2021/09/20 01:50:05;;;;;;;;;;;21.70;62.50;;;;;;507557;235;1031;-47
2021/09/20 01:52:06;;;;;;;;;;;21.70;62.50;;;;;;499115;237;1354;-47
2021/09/20 01:54:07;;;;;;;;;;;21.80;62.40;;;;;;507569;235;1041;-47
2021/09/20 01:56:09;;;;;;;;;;;21.80;62.40;;;;;;499094;237;1440;-47
2021/09/20 01:58:10;;;;;;;;;;;21.70;62.30;;;;;;507041;235;1157;-47
2021/09/20 02:00:11;;;;;;;;;;;21.70;62.40;;;;;;499222;237;1056;-47
2021/09/20 02:02:13;;;;;;;;;;;21.80;62.40;;;;;;507302;235;1375;-47
2021/09/20 02:04:14;;;;;;;;;;;21.80;62.40;;;;;;499182;237;1055;-47
2021/09/20 02:06:15;;;;;;;;;;;21.80;62.40;;;;;;507314;235;2173;-47
2021/09/20 02:08:17;;;;;;;;;;;21.80;62.40;;;;;;499131;237;1208;-47
2021/09/20 02:10:18;;;;;;;;;;;21.80;62.40;;;;;;507295;235;1080;-47
2021/09/20 02:12:19;;;;;;;;;;;21.80;62.40;;;;;;499125;237;1124;-47
2021/09/20 02:14:20;;;;;;;;;;;21.80;62.30;;;;;;507056;235;1050;-47
2021/09/20 02:16:22;;;;;;;;;;;21.70;62.50;;;;;;499492;237;1441;-47
2021/09/20 02:18:23;;;;;;;;;;;21.70;62.40;;;;;;507391;235;1097;-47
2021/09/20 02:20:25;;;;;;;;;;;21.70;62.30;;;;;;499167;237;1114;-46
2021/09/20 02:22:26;;;;;;;;;;;21.70;62.30;;;;;;507031;235;1225;-46
2021/09/20 02:24:27;;;;;;;;;;;21.70;62.40;;;;;;499413;237;1032;-46
2021/09/20 02:26:28;;;;;;;;;;;21.70;62.30;;;;;;507458;235;2167;-46
2021/09/20 02:28:30;;;;;;;;;;;21.70;62.40;;;;;;499634;237;1175;-46
2021/09/20 02:30:31;;;;;;;;;;;21.70;62.50;;;;;;507294;235;1068;-46
2021/09/20 02:32:33;;;;;;;;;;;21.70;62.40;;;;;;499406;237;1200;-46
2021/09/20 02:34:34;;;;;;;;;;;21.70;62.40;;;;;;507037;235;1097;-47
2021/09/20 02:36:35;;;;;;;;;;;21.70;62.40;;;;;;499430;237;1287;-47
2021/09/20 02:38:37;;;;;;;;;;;21.70;62.40;;;;;;507275;235;1181;-47
2021/09/20 02:40:38;;;;;;;;;;;21.70;62.40;;;;;;499131;237;1064;-47
2021/09/20 02:42:39;;;;;;;;;;;21.70;62.50;;;;;;506927;235;1142;-46
2021/09/20 02:44:40;;;;;;;;;;;21.70;62.40;;;;;;499657;237;1038;-46
2021/09/20 02:46:42;;;;;;;;;;;21.80;62.40;;;;;;507069;235;2273;-46
2021/09/20 02:48:43;;;;;;;;;;;21.70;62.40;;;;;;499418;237;1099;-46
2021/09/20 02:50:44;;;;;;;;;;;21.80;62.40;;;;;;507187;235;1172;-47
2021/09/20 02:52:46;;;;;;;;;;;21.70;62.40;;;;;;499134;237;1180;-47
2021/09/20 02:54:47;;;;;;;;;;;21.70;62.30;;;;;;507002;235;1057;-46
2021/09/20 02:56:48;;;;;;;;;;;21.70;62.30;;;;;;499046;237;1206;-46
2021/09/20 02:58:50;;;;;;;;;;;21.70;62.30;;;;;;507501;235;1038;-46
2021/09/20 03:00:51;;;;;;;;;;;21.70;62.40;;;;;;499632;237;1251;-46
2021/09/20 03:02:53;;;;;;;;;;;21.70;62.40;;;;;;507524;235;1075;-47
2021/09/20 03:04:54;;;;;;;;;;;21.60;62.40;;;;;;499294;237;1090;-46
2021/09/20 03:06:56;;;;;;;;;;;21.70;62.30;;;;;;507194;235;2129;-46
2021/09/20 03:08:57;;;;;;;;;;;21.60;62.40;;;;;;499375;237;1215;-46
2021/09/20 03:10:58;;;;;;;;;;;21.70;62.30;;;;;;507362;235;1277;-46
2021/09/20 03:13:00;;;;;;;;;;;21.60;62.40;;;;;;499191;237;1073;-47
2021/09/20 03:15:01;;;;;;;;;;;21.70;62.40;;;;;;507489;235;1026;-47
2021/09/20 03:17:02;;;;;;;;;;;21.70;62.40;;;;;;499121;237;1215;-46
2021/09/20 03:19:03;;;;;;;;;;;21.70;62.40;;;;;;507529;235;1022;-47
2021/09/20 03:21:05;;;;;;;;;;;21.80;62.30;;;;;;499128;237;1291;-47
2021/09/20 03:23:06;;;;;;;;;;;21.80;62.20;;;;;;506974;235;1217;-46
2021/09/20 03:25:07;;;;;;;;;;;21.70;62.20;;;;;;499651;237;1062;-46
2021/09/20 03:27:09;;;;;;;;;;;21.70;62.30;;;;;;506926;235;2185;-46
2021/09/20 03:29:10;;;;;;;;;;;21.70;62.30;;;;;;499179;237;1044;-46
2021/09/20 03:31:11;;;;;;;;;;;21.80;62.30;;;;;;506990;235;1142;-46
2021/09/20 03:33:13;;;;;;;;;;;21.80;62.20;;;;;;499455;237;1215;-47
2021/09/20 03:35:14;;;;;;;;;;;21.70;62.10;;;;;;507267;235;1108;-46
2021/09/20 03:37:15;;;;;;;;;;;21.80;62.30;;;;;;499085;237;1118;-47
2021/09/20 03:39:17;;;;;;;;;;;21.70;62.30;;;;;;507058;235;1234;-47
2021/09/20 03:41:18;;;;;;;;;;;21.70;62.30;;;;;;499511;237;1295;-47
2021/09/20 03:43:19;;;;;;;;;;;21.60;62.40;;;;;;507520;235;1022;-47
2021/09/20 03:45:21;;;;;;;;;;;21.70;62.30;;;;;;499633;237;1277;-47
2021/09/20 03:47:22;;;;;;;;;;;21.70;62.40;;;;;;507355;235;2110;-46
2021/09/20 03:49:23;;;;;;;;;;;21.60;62.40;;;;;;499208;237;1051;-47
2021/09/20 03:51:25;;;;;;;;;;;21.60;62.40;;;;;;507097;235;1105;-46
2021/09/20 03:53:26;;;;;;;;;;;21.70;62.40;;;;;;499659;237;1041;-46
2021/09/20 03:55:27;;;;;;;;;;;21.70;62.30;;;;;;507033;235;1205;-46
2021/09/20 03:57:29;;;;;;;;;;;21.70;62.30;;;;;;499566;237;1164;-47
2021/09/20 03:59:30;;;;;;;;;;;21.70;62.30;;;;;;506993;235;1127;-46
2021/09/20 04:01:32;;;;;;;;;;;21.70;62.40;;;;;;499084;237;1289;-46
2021/09/20 04:03:33;;;;;;;;;;;21.70;62.40;;;;;;507287;235;1006;-46
2021/09/20 04:05:34;;;;;;;;;;;21.70;62.30;;;;;;499098;237;1232;-46
2021/09/20 04:07:35;;;;;;;;;;;21.80;62.30;;;;;;506889;235;2188;-46
2021/09/20 04:09:37;;;;;;;;;;;21.70;62.10;;;;;;499203;237;1145;-46
2021/09/20 04:11:40;;;;;;;;;;;21.80;62.10;;;;;;507097;235;1235;-46
2021/09/20 04:13:40;;;;;;;;;;;21.80;62.20;;;;;;499508;239;2459;-46
2021/09/20 04:15:41;;;;;;;;;;;21.70;62.10;;;;;;506924;235;1392;-46
2021/09/20 04:17:42;;;;;;;;;;;21.80;62.20;;;;;;499136;237;1210;-46
2021/09/20 04:19:44;;;;;;;;;;;21.70;62.20;;;;;;507127;235;1048;-46
2021/09/20 04:21:45;;;;;;;;;;;21.70;62.20;;;;;;499559;237;1624;-46
2021/09/20 04:23:46;;;;;;;;;;;21.70;62.30;;;;;;506952;235;1058;-46
2021/09/20 04:25:48;;;;;;;;;;;21.60;62.30;;;;;;499093;237;1286;-46
2021/09/20 04:27:49;;;;;;;;;;;21.70;62.30;;;;;;506946;235;2121;-47
2021/09/20 04:29:50;;;;;;;;;;;21.60;62.30;;;;;;499112;237;1042;-46
2021/09/20 04:31:52;;;;;;;;;;;21.70;62.20;;;;;;507410;235;1476;-46
2021/09/20 04:33:53;;;;;;;;;;;21.70;62.40;;;;;;499520;237;1096;-47
2021/09/20 04:35:54;;;;;;;;;;;21.70;62.40;;;;;;507180;235;1201;-46
2021/09/20 04:37:56;;;;;;;;;;;21.70;62.40;;;;;;499181;237;1067;-47
2021/09/20 04:39:57;;;;;;;;;;;21.70;62.40;;;;;;507158;235;1201;-46
2021/09/20 04:42:00;;;;;;;;;;;21.70;62.30;;;;;;499074;237;1334;-46
2021/09/20 04:44:00;;;;;;;;;;;21.70;62.30;;;;;;506954;235;2294;-47
2021/09/20 04:46:01;;;;;;;;;;;21.70;62.30;;;;;;498867;237;1184;-46
2021/09/20 04:48:02;;;;;;;;;;;21.70;62.10;;;;;;506839;235;2181;-46
2021/09/20 04:50:04;;;;;;;;;;;21.70;62.20;;;;;;499183;237;1176;-46
2021/09/20 04:52:05;;;;;;;;;;;21.70;62.20;;;;;;506711;235;1216;-46
2021/09/20 04:54:06;;;;;;;;;;;21.80;62.10;;;;;;499325;237;1096;-47
2021/09/20 04:56:08;;;;;;;;;;;21.80;62.20;;;;;;506764;235;1434;-46
2021/09/20 04:58:09;;;;;;;;;;;21.80;62.20;;;;;;499155;237;1274;-46
2021/09/20 05:00:10;;;;;;;;;;;21.70;62.10;;;;;;506754;235;1048;-46
2021/09/20 05:02:12;;;;;;;;;;;21.80;62.10;;;;;;498973;237;1188;-46
2021/09/20 05:04:14;;;;;;;;;;;21.70;62.10;;;;;;507302;235;1076;-46
2021/09/20 05:06:15;;;;;;;;;;;21.70;62.10;;;;;;498767;239;2449;-46
2021/09/20 05:08:17;;;;;;;;;;;21.70;62.10;;;;;;506867;235;2102;-47
2021/09/20 05:10:18;;;;;;;;;;;21.70;62.20;;;;;;498897;237;2202;-47
2021/09/20 05:12:19;;;;;;;;;;;21.70;62.20;;;;;;506762;235;1228;-47
2021/09/20 05:14:20;;;;;;;;;;;21.60;62.20;;;;;;499253;237;1213;-47
2021/09/20 05:16:21;;;;;;;;;;;21.70;62.20;;;;;;506705;235;1334;-47
2021/09/20 05:18:23;;;;;;;;;;;21.70;62.30;;;;;;498854;237;1109;-46
2021/09/20 05:20:24;;;;;;;;;;;21.70;62.40;;;;;;506658;235;1206;-47
2021/09/20 05:22:25;;;;;;;;;;;21.70;62.30;;;;;;498861;237;1211;-47
2021/09/20 05:24:27;;;;;;;;;;;21.70;62.30;;;;;;506817;235;1134;-47
2021/09/20 05:26:28;;;;;;;;;;;21.70;62.30;;;;;;498912;237;1288;-47
2021/09/20 05:28:29;;;;;;;;;;;21.80;62.20;;;;;;506862;235;2105;-47
2021/09/20 05:30:31;;;;;;;;;;;21.70;62.20;;;;;;498840;237;1439;-47
2021/09/20 05:32:32;;;;;;;;;;;21.70;62.20;;;;;;506856;235;1213;-47
2021/09/20 05:34:33;;;;;;;;;;;21.80;62.20;;;;;;498949;237;1026;-46
2021/09/20 05:36:35;;;;;;;;;;;21.70;62.20;;;;;;506670;235;1577;-46
2021/09/20 05:38:36;;;;;;;;;;;21.70;62.10;;;;;;498941;237;1219;-47
2021/09/20 05:40:37;;;;;;;;;;;21.70;62.20;;;;;;506624;235;1400;-47
2021/09/20 05:42:39;;;;;;;;;;;21.80;62.10;;;;;;498813;237;1159;-46
2021/09/20 05:44:40;;;;;;;;;;;21.70;62.30;;;;;;506723;235;1080;-47
2021/09/20 05:46:41;;;;;;;;;;;21.70;62.20;;;;;;498694;237;1124;-47
2021/09/20 05:48:42;;;;;;;;;;;21.70;62.10;;;;;;506648;235;2106;-46
2021/09/20 05:50:44;;;;;;;;;;;21.70;62.30;;;;;;498756;237;1179;-46
2021/09/20 05:52:45;;;;;;;;;;;21.70;62.20;;;;;;506559;235;1155;-47
2021/09/20 05:54:46;;;;;;;;;;;21.70;62.10;;;;;;498792;237;1116;-46
2021/09/20 05:56:48;;;;;;;;;;;21.70;62.20;;;;;;506739;235;1326;-47
2021/09/20 05:58:49;;;;;;;;;;;21.60;62.30;;;;;;498721;237;1198;-47
2021/09/20 06:00:51;;;;;;;;;;;21.70;62.30;;;;;;506448;235;1153;-46
2021/09/20 06:02:52;;;;;;;;;;;21.70;62.20;;;;;;498676;237;1215;-47
2021/09/20 06:04:54;;;;;;;;;;;21.70;62.20;;;;;;506832;235;1056;-46
2021/09/20 06:06:55;;;;;;;;;;;21.70;62.30;;;;;;498928;237;1399;-46
2021/09/20 06:08:57;;;;;;;;;;;21.70;62.30;;;;;;506627;235;2165;-46
2021/09/20 06:10:58;;;;;;;;;;;21.70;62.20;;;;;;498649;237;1634;-46
2021/09/20 06:12:59;;;;;;;;;;;21.70;62.20;;;;;;506466;235;1308;-46
2021/09/20 06:15:01;;;;;;;;;;;21.70;62.20;;;;;;498528;237;1193;-46
2021/09/20 06:17:02;;;;;;;;;;;21.70;62.30;;;;;;506319;235;1126;-46
2021/09/20 06:19:03;;;;;;;;;;;21.70;62.30;;;;;;498574;237;1105;-46
2021/09/20 06:21:04;;;;;;;;;;;21.70;62.20;;;;;;506422;235;1165;-46
2021/09/20 06:23:06;;;;;;;;;;;21.70;62.20;;;;;;498643;237;1227;-46
2021/09/20 06:25:07;;;;;;;;;;;21.70;62.10;;;;;;506333;235;1090;-46
2021/09/20 06:27:08;;;;;;;;;;;21.70;62.10;;;;;;498475;237;1296;-46
2021/09/20 06:29:10;;;;;;;;;;;21.70;62.10;;;;;;506264;235;2184;-46
2021/09/20 06:31:11;;;;;;;;;;;21.60;62.10;;;;;;498347;237;1360;-46
2021/09/20 06:33:12;;;;;;;;;;;21.70;62.10;;;;;;506273;235;1031;-46
2021/09/20 06:35:14;;;;;;;;;;;21.60;62.10;;;;;;498094;237;1097;-46
2021/09/20 06:37:15;;;;;;;;;;;21.60;62.20;;;;;;506096;235;1085;-47
2021/09/20 06:39:16;;;;;;;;;;;21.70;62.20;;;;;;498195;237;1083;-47
2021/09/20 06:41:18;;;;;;;;;;;21.60;62.30;;;;;;506096;235;1292;-46
2021/09/20 06:43:19;;;;;;;;;;;21.60;62.30;;;;;;498136;237;1166;-46
2021/09/20 06:45:20;;;;;;;;;;;21.70;62.40;;;;;;505913;235;1094;-46
2021/09/20 06:47:22;;;;;;;;;;;21.70;62.10;;;;;;498049;237;1231;-46
2021/09/20 06:49:23;;;;;;;;;;;21.70;62.20;;;;;;506432;235;2173;-47
2021/09/20 06:51:24;;;;;;;;;;;21.70;62.30;;;;;;498634;237;1462;-46
2021/09/20 06:53:26;;;;;;;;;;;21.70;62.00;;;;;;506209;235;788;-47
2021/09/20 06:55:27;;;;;;;;;;;21.70;62.10;;;;;;498925;237;765;-47
2021/09/20 06:57:28;;;;;;;;;;;21.70;62.10;;;;;;506184;235;1470;-47
2021/09/20 06:59:31;;;;;;;;;;;21.70;62.10;;;;;;498434;237;777;-46
2021/09/20 07:01:32;;;;;;;;;;;21.70;62.20;;;;;;506313;235;1236;-47
2021/09/20 07:03:33;;;;;;;;;;;21.60;62.30;;;;;;498835;237;849;-47
2021/09/20 07:05:35;;;;;;;;;;;21.70;62.20;;;;;;506580;235;1347;-46
2021/09/20 07:07:36;;;;;;;;;;;21.60;62.10;;;;;;498817;237;969;-46
2021/09/20 07:09:37;;;;;;;;;;;21.60;62.30;;;;;;506531;235;2173;-46
2021/09/20 07:11:39;;;;;;;;;;;21.60;62.30;;;;;;498204;237;1132;-46
2021/09/20 07:13:40;;;;;;;;;;;21.60;62.40;;;;;;506403;235;846;-46
2021/09/20 07:15:41;;;;;;;;;;;21.60;62.40;;;;;;498558;237;1349;-46
2021/09/20 07:17:42;;;;;;;;;;;21.60;62.40;;;;;;506394;235;1029;-47
2021/09/20 07:19:44;;;;;;;;;;;21.60;62.40;;;;;;498758;237;711;-46
2021/09/20 07:21:45;;;;;;;;;;;21.60;62.30;;;;;;505886;235;1030;-46
2021/09/20 07:23:46;;;;;;;;;;;21.70;62.30;;;;;;498197;237;1230;-46
2021/09/20 07:25:48;;;;;;;;;;;21.70;62.30;;;;;;506420;235;764;-46
2021/09/20 07:27:49;;;;;;;;;;;21.70;62.20;;;;;;498291;237;2185;-46
2021/09/20 07:29:50;;;;;;;;;;;21.70;62.20;;;;;;506146;235;773;-47
2021/09/20 07:31:52;;;;;;;;;;;21.80;62.10;;;;;;497951;237;1109;-46
2021/09/20 07:33:53;;;;;;;;;;;21.70;62.10;;;;;;506386;235;801;-46
2021/09/20 07:35:54;;;;;;;;;;;21.70;62.10;;;;;;498638;237;829;-46
2021/09/20 07:37:56;;;;;;;;;;;21.70;62.10;;;;;;506203;235;664;-46
2021/09/20 07:39:58;;;;;;;;;;;21.70;62.10;;;;;;497865;237;802;-47
2021/09/20 07:41:59;;;;;;;;;;;21.80;62.00;;;;;;505757;230;1238;-47
2021/09/20 07:44:00;;;;;;;;;;;21.80;61.90;;;;;;497706;237;1037;-46
2021/09/20 07:46:01;;;;;;;;;;;21.70;62.00;;;;;;506227;235;1062;-47
2021/09/20 07:48:03;;;;;;;;;;;21.80;62.10;;;;;;498083;237;2255;-47
2021/09/20 07:50:04;;;;;;;;;;;21.80;62.10;;;;;;505769;235;770;-47
2021/09/20 07:52:05;;;;;;;;;;;21.80;62.10;;;;;;497796;237;1075;-47
2021/09/20 07:54:06;;;;;;;;;;;21.70;62.20;;;;;;505933;235;1020;-47
2021/09/20 07:56:08;;;;;;;;;;;21.80;62.10;;;;;;498044;237;1451;-47
2021/09/20 07:58:09;;;;;;;;;;;21.70;62.10;;;;;;505839;235;1498;-47
2021/09/20 08:00:10;;;;;;;;;;;21.70;62.10;;;;;;498053;237;848;-46
2021/09/20 08:02:12;;;;;;;;;;;21.70;62.20;;;;;;505883;235;1278;-47
2021/09/20 08:04:13;;;;;;;;;;;21.70;62.30;;;;;;498411;237;792;-47
2021/09/20 08:06:17;;;;;;;;;;;21.60;62.30;;;;;;505572;235;1504;-46
2021/09/20 08:08:16;;;;;;;;;;;21.60;62.30;;;;;;498096;239;2172;-46
2021/09/20 08:10:17;;;;;;;;;;;21.70;62.30;;;;;;506508;235;760;-48
2021/09/20 08:12:19;;;;;;;;;;;21.70;62.20;;;;;;498186;237;1156;-47
2021/09/20 08:14:20;;;;;;;;;;;21.70;62.00;;;;;;506428;235;982;-47
2021/09/20 08:16:21;;;;;;;;;;;21.70;62.10;;;;;;497761;237;1505;-47
2021/09/20 08:18:23;;;;;;;;;;;21.70;62.10;;;;;;506162;235;1170;-47
2021/09/20 08:20:24;;;;;;;;;;;21.70;62.30;;;;;;498258;237;748;-47
2021/09/20 08:22:25;;;;;;;;;;;21.70;62.10;;;;;;505588;235;1263;-46
2021/09/20 08:24:27;;;;;;;;;;;21.70;62.00;;;;;;498351;237;793;-47
2021/09/20 08:26:29;;;;;;;;;;;21.70;62.20;;;;;;506294;234;1161;-46
2021/09/20 08:28:30;;;;;;;;;;;21.60;62.30;;;;;;497963;237;2200;-47
2021/09/20 08:30:31;;;;;;;;;;;21.70;62.30;;;;;;506408;235;854;-47
2021/09/20 08:32:32;;;;;;;;;;;21.70;62.20;;;;;;498500;237;1302;-46
2021/09/20 08:34:34;;;;;;;;;;;21.70;62.30;;;;;;506371;235;713;-46
2021/09/20 08:36:35;;;;;;;;;;;21.70;62.20;;;;;;498460;237;1460;-47
2021/09/20 08:38:36;;;;;;;;;;;21.70;62.20;;;;;;505868;235;925;-47
2021/09/20 08:40:38;;;;;;;;;;;21.70;62.10;;;;;;498093;237;1334;-47
2021/09/20 08:42:39;;;;;;;;;;;21.70;62.30;;;;;;505776;235;1079;-47
2021/09/20 08:44:40;;;;;;;;;;;21.80;62.10;;;;;;498233;237;1164;-47
2021/09/20 08:46:42;;;;;;;;;;;21.70;62.10;;;;;;505977;235;1478;-46
2021/09/20 08:48:43;;;;;;;;;;;21.70;62.00;;;;;;498432;237;2181;-47
2021/09/20 08:50:45;;;;;;;;;;;21.70;62.00;;;;;;505529;235;1434;-46
2021/09/20 08:52:46;;;;;;;;;;;21.60;62.20;;;;;;497200;237;1925;-47
2021/09/20 08:54:49;;;;;;;;;;;21.60;62.30;;;;;;506135;235;738;-47
2021/09/20 08:56:49;;;;;;;;;;;21.60;62.30;;;;;;497644;239;2153;-47
2021/09/20 08:58:50;;;;;;;;;;;21.60;62.40;;;;;;505874;235;1170;-46
2021/09/20 09:00:52;;;;;;;;;;;21.60;62.60;;;;;;498208;237;764;-47
2021/09/20 09:02:53;;;;;;;;;;;21.60;62.40;;;;;;506513;235;1277;-47
2021/09/20 09:04:54;;;;;;;;;;;21.60;62.40;;;;;;497926;237;842;-47
2021/09/20 09:06:56;;;;;;;;;;;21.60;62.40;;;;;;506055;235;1429;-46
2021/09/20 09:08:57;;;;;;;;;;;21.60;62.30;;;;;;497874;237;2177;-47
2021/09/20 09:10:58;;;;;;;;;;;21.70;62.40;;;;;;506135;235;1268;-46
2021/09/20 09:13:00;;;;;;;;;;;21.70;62.30;;;;;;498131;237;1011;-47
2021/09/20 09:15:01;;;;;;;;;;;21.70;62.30;;;;;;505630;235;756;-46
2021/09/20 09:17:02;;;;;;;;;;;21.70;62.10;;;;;;497688;237;1164;-47
2021/09/20 09:19:04;;;;;;;;;;;21.70;62.10;;;;;;506176;235;792;-47
2021/09/20 09:21:05;;;;;;;;;;;21.70;62.20;;;;;;498380;237;1354;-47
2021/09/20 09:23:06;;;;;;;;;;;21.70;62.10;;;;;;505862;235;855;-47
2021/09/20 09:25:08;;;;;;;;;;;21.70;62.30;;;;;;498174;237;1040;-46
2021/09/20 09:27:09;;;;;;;;;;;21.70;62.20;;;;;;505796;235;1179;-46
2021/09/20 09:29:10;;;;;;;;;;;21.70;62.10;;;;;;498007;237;2189;-47
2021/09/20 09:31:12;;;;;;;;;;;21.70;62.10;;;;;;506045;235;1392;-47
2021/09/20 09:33:13;;;;;;;;;;;21.80;62.20;;;;;;498399;237;790;-47
2021/09/20 09:35:14;;;;;;;;;;;21.80;62.20;;;;;;506354;235;785;-47
2021/09/20 09:37:16;;;;;;;;;;;21.70;62.20;;;;;;498490;237;984;-47
2021/09/20 09:39:17;;;;;;;;;;;21.70;62.10;;;;;;506414;235;778;-46
2021/09/20 09:41:18;;;;;;;;;;;21.70;62.10;;;;;;497936;237;1101;-47
2021/09/20 09:43:19;;;;;;;;;;;21.70;62.20;;;;;;505799;235;1059;-46
2021/09/20 09:45:21;;;;;;;;;;;21.60;62.20;;;;;;498480;237;1377;-46
2021/09/20 09:47:22;;;;;;;;;;;21.60;62.30;;;;;;506376;235;1159;-47
2021/09/20 09:49:23;;;;;;;;;;;21.60;62.30;;;;;;498743;237;2176;-46
2021/09/20 09:51:25;;;;;;;;;;;21.70;62.40;;;;;;506371;235;1055;-46
2021/09/20 09:53:26;;;;;;;;;;;21.60;62.30;;;;;;498683;237;1024;-46
2021/09/20 09:55:27;;;;;;;;;;;21.70;62.30;;;;;;506123;235;1174;-46
2021/09/20 09:57:29;;;;;;;;;;;21.70;62.10;;;;;;498178;237;1127;-47
2021/09/20 09:59:30;;;;;;;;;;;21.70;62.20;;;;;;505880;235;1049;-47
2021/09/20 10:01:31;;;;;;;;;;;21.70;62.20;;;;;;498264;237;1187;-46
2021/09/20 10:03:33;;;;;;;;;;;21.70;62.20;;;;;;506496;235;979;-46
2021/09/20 10:05:34;;;;;;;;;;;21.70;62.10;;;;;;498920;237;1198;-47
2021/09/20 10:07:35;;;;;;;;;;;21.70;62.00;;;;;;506332;235;1023;-46
2021/09/20 10:09:37;;;;;;;;;;;21.70;62.10;;;;;;498279;237;2181;-46
2021/09/20 10:11:38;;;;;;;;;;;21.70;62.10;;;;;;506115;235;1149;-46
2021/09/20 10:13:39;;;;;;;;;;;21.80;62.10;;;;;;497497;237;1054;-46
2021/09/20 10:15:41;;;;;;;;;;;21.70;62.10;;;;;;505568;235;1303;-47
2021/09/20 10:17:42;;;;;;;;;;;21.70;62.10;;;;;;497661;237;1240;-47
2021/09/20 10:19:43;;;;;;;;;;;21.80;62.00;;;;;;506362;235;800;-47
2021/09/20 10:21:44;;;;;;;;;;;21.70;62.10;;;;;;498306;237;1192;-46
2021/09/20 10:23:47;;;;;;;;;;;21.70;62.10;;;;;;506308;235;726;-46
2021/09/20 10:25:47;;;;;;;;;;;21.70;62.20;;;;;;498437;237;2094;-47
2021/09/20 10:27:48;;;;;;;;;;;21.70;62.20;;;;;;506326;235;1343;-46
2021/09/20 10:29:50;;;;;;;;;;;21.70;62.00;;;;;;497994;237;2209;-46
2021/09/20 10:31:51;;;;;;;;;;;21.80;62.00;;;;;;506277;235;1501;-47
2021/09/20 10:33:52;;;;;;;;;;;21.70;62.00;;;;;;498501;237;774;-47
2021/09/20 10:35:54;;;;;;;;;;;21.70;62.10;;;;;;506466;235;747;-47
2021/09/20 10:37:55;;;;;;;;;;;21.70;62.10;;;;;;498575;237;2500;-47
2021/09/20 10:39:56;;;;;;;;;;;21.70;62.20;;;;;;506005;235;818;-46
2021/09/20 10:41:58;;;;;;;;;;;21.70;62.20;;;;;;498228;237;1041;-47
2021/09/20 10:43:59;;;;;;;;;;;21.60;62.30;;;;;;505624;235;1172;-46
2021/09/20 10:46:02;;;;;;;;;;;21.60;62.30;;;;;;498124;237;1474;-47
2021/09/20 10:48:02;;;;;;;;;;;21.70;62.20;;;;;;506392;235;1337;-46
2021/09/20 10:50:03;;;;;;;;;;;21.70;62.20;;;;;;497990;237;2184;-47
2021/09/20 10:52:04;;;;;;;;;;;21.70;62.20;;;;;;505476;235;1243;-48
2021/09/20 10:54:05;;;;;;;;;;;21.70;62.20;;;;;;497774;237;777;-46
2021/09/20 10:56:07;;;;;;;;;;;21.60;62.30;;;;;;505640;235;1398;-47
2021/09/20 10:58:08;;;;;;;;;;;21.70;62.20;;;;;;497926;237;821;-46
2021/09/20 11:00:09;;;;;;;;;;;21.70;62.20;;;;;;505854;235;1436;-46
2021/09/20 11:02:11;;;;;;;;;;;21.70;62.20;;;;;;497890;237;1022;-46
2021/09/20 11:04:12;;;;;;;;;;;21.70;62.10;;;;;;506370;235;727;-46
2021/09/20 11:06:13;;;;;;;;;;;21.70;62.10;;;;;;498570;237;1614;-46
2021/09/20 11:08:15;;;;;;;;;;;21.70;62.00;;;;;;506062;235;815;-46
2021/09/20 11:10:17;;;;;;;;;;;21.70;62.00;;;;;;498439;237;2180;-46
2021/09/20 11:12:18;;;;;;;;;;;21.70;62.20;;;;;;505967;235;1818;-46
2021/09/20 11:14:19;;;;;;;;;;;21.70;62.10;;;;;;498097;237;1953;-46
2021/09/20 11:16:20;;;;;;;;;;;21.70;62.20;;;;;;506331;235;1078;-46
2021/09/20 11:18:21;;;;;;;;;;;21.60;62.20;;;;;;498553;237;791;-47
2021/09/20 11:20:23;;;;;;;;;;;21.60;62.20;;;;;;506247;235;760;-46
2021/09/20 11:22:24;;;;;;;;;;;21.70;62.20;;;;;;497773;237;1222;-46
2021/09/20 11:24:25;;;;;;;;;;;21.70;62.10;;;;;;505682;235;846;-46
2021/09/20 11:26:26;;;;;;;;;;;21.70;62.10;;;;;;498070;237;1400;-47
2021/09/20 11:28:28;;;;;;;;;;;21.70;62.10;;;;;;506545;235;1104;-47
2021/09/20 11:30:29;;;;;;;;;;;21.70;62.00;;;;;;498074;237;2177;-46
2021/09/20 11:32:30;;;;;;;;;;;21.70;62.10;;;;;;506288;235;1255;-47
2021/09/20 11:34:33;;;;;;;;;;;21.70;62.10;;;;;;497925;237;765;-46
2021/09/20 11:36:34;;;;;;;;;;;21.70;62.10;;;;;;506339;235;1303;-46
2021/09/20 11:38:36;;;;;;;;;;;21.60;62.20;;;;;;498634;237;993;-46
2021/09/20 11:40:37;;;;;;;;;;;21.60;62.20;;;;;;506310;235;1286;-46
2021/09/20 11:42:39;;;;;;;;;;;21.70;62.10;;;;;;497855;237;1071;-46
2021/09/20 11:44:40;;;;;;;;;;;21.70;62.10;;;;;;506043;235;2103;-46
2021/09/20 11:46:41;;;;;;;;;;;21.70;62.10;;;;;;498108;237;1072;-47
2021/09/20 11:48:42;;;;;;;;;;;21.70;62.00;;;;;;506499;235;818;-47
2021/09/20 11:50:44;;;;;;;;;;;21.70;62.00;;;;;;498612;237;2168;-46
2021/09/20 11:52:45;;;;;;;;;;;21.70;62.10;;;;;;506492;235;984;-47
2021/09/20 11:54:48;;;;;;;;;;;21.70;62.00;;;;;;498064;237;765;-46
2021/09/20 11:56:48;;;;;;;;;;;21.70;62.10;;;;;;506170;235;2094;-46